createdAt,value
2018-04-29T00:03:00.723Z,292
2018-04-29T00:08:00.870Z,292
2018-04-29T00:13:01.259Z,292
2018-04-29T00:18:00.830Z,292
2018-04-29T00:23:01.132Z,292
2018-04-29T00:28:00.636Z,292
2018-04-29T00:33:00.987Z,292
2018-04-29T00:38:00.301Z,292
2018-04-29T00:43:00.532Z,292
2018-04-29T00:48:00.838Z,292
2018-04-29T00:53:01.301Z,292
2018-04-29T00:58:00.535Z,292
2018-04-29T01:03:01.009Z,292
2018-04-29T01:08:00.699Z,292
2018-04-29T01:13:01.027Z,292
2018-04-29T01:18:01.504Z,292
2018-04-29T01:23:00.797Z,292
2018-04-29T01:28:01.156Z,292
2018-04-29T01:33:00.804Z,292
2018-04-29T01:38:01.197Z,292
2018-04-29T01:43:00.541Z,292
2018-04-29T01:48:00.908Z,292
2018-04-29T01:53:01.232Z,292
2018-04-29T01:58:00.590Z,292
2018-04-29T02:03:00.877Z,292
2018-04-29T02:08:00.565Z,292
2018-04-29T02:13:00.883Z,292
2018-04-29T02:18:01.289Z,292
2018-04-29T02:23:00.591Z,292
2018-04-29T02:28:00.883Z,292
2018-04-29T02:33:01.376Z,292
2018-04-29T02:38:00.771Z,292
2018-04-29T02:43:01.152Z,292
2018-04-29T02:48:01.439Z,292
2018-04-29T02:53:00.612Z,292
2018-04-29T02:58:01.082Z,292
2018-04-29T03:03:01.619Z,292
2018-04-29T03:08:01.130Z,292
2018-04-29T03:13:01.391Z,292
2018-04-29T03:18:00.764Z,292
2018-04-29T03:23:01.154Z,292
2018-04-29T03:28:00.444Z,292
2018-04-29T03:33:00.875Z,292
2018-04-29T03:38:01.118Z,292
2018-04-29T03:43:01.362Z,292
2018-04-29T03:48:00.576Z,292
2018-04-29T03:53:01.000Z,292
2018-04-29T03:58:01.314Z,292
2018-04-29T04:03:00.876Z,292
2018-04-29T04:08:00.716Z,292
2018-04-29T04:13:01.012Z,292
2018-04-29T04:18:01.445Z,292
2018-04-29T04:23:00.755Z,292
2018-04-29T04:28:01.177Z,292
2018-04-29T04:33:01.478Z,292
2018-04-29T04:38:00.852Z,292
2018-04-29T04:43:01.046Z,292
2018-04-29T04:48:01.394Z,292
2018-04-29T04:53:01.657Z,315
2018-04-29T04:58:00.976Z,315
2018-04-29T05:03:01.354Z,315
2018-04-29T05:08:01.314Z,315
2018-04-29T05:13:01.412Z,315
2018-04-29T05:18:00.840Z,315
2018-04-29T05:23:01.252Z,315
2018-04-29T05:28:00.675Z,315
2018-04-29T05:33:00.954Z,315
2018-04-29T05:38:01.208Z,315
2018-04-29T05:43:01.577Z,315
2018-04-29T05:48:00.995Z,315
2018-04-29T05:53:01.249Z,315
2018-04-29T05:58:01.505Z,315
2018-04-29T06:03:01.343Z,315
2018-04-29T06:08:01.214Z,315
2018-04-29T06:13:01.600Z,0
2018-04-29T06:18:00.786Z,0
2018-04-29T06:23:01.102Z,45
2018-04-29T06:28:01.539Z,45
2018-04-29T06:33:01.024Z,45
2018-04-29T06:38:01.287Z,45
2018-04-29T06:43:00.710Z,45
2018-04-29T06:48:01.153Z,45
2018-04-29T06:53:01.428Z,68
2018-04-29T06:58:00.686Z,68
2018-04-29T07:03:01.144Z,68
2018-04-29T07:08:01.548Z,68
2018-04-29T07:13:01.138Z,338
2018-04-29T07:18:01.655Z,338
2018-04-29T07:23:00.924Z,338
2018-04-29T07:28:01.324Z,338
2018-04-29T07:33:01.613Z,45
2018-04-29T07:38:00.924Z,45
2018-04-29T07:43:01.438Z,338
2018-04-29T07:48:01.018Z,338
2018-04-29T07:53:01.414Z,68
2018-04-29T07:58:01.584Z,68
2018-04-29T08:03:01.347Z,68
2018-04-29T08:08:01.662Z,68
2018-04-29T08:13:00.927Z,68
2018-04-29T08:18:01.192Z,68
2018-04-29T08:23:01.043Z,68
2018-04-29T08:28:01.331Z,68
2018-04-29T08:33:01.746Z,68
2018-04-29T08:38:01.024Z,68
2018-04-29T08:43:01.310Z,90
2018-04-29T08:48:01.644Z,90
2018-04-29T08:53:01.061Z,0
2018-04-29T08:58:01.420Z,0
2018-04-29T09:03:01.014Z,45
2018-04-29T09:08:01.298Z,45
2018-04-29T09:13:01.655Z,68
2018-04-29T09:18:01.101Z,68
2018-04-29T09:23:01.429Z,68
2018-04-29T09:28:01.644Z,68
2018-04-29T09:33:01.049Z,90
2018-04-29T09:38:01.460Z,90
2018-04-29T09:43:01.670Z,0
2018-04-29T09:48:00.996Z,0
2018-04-29T09:53:01.216Z,68
2018-04-29T09:58:01.571Z,68
2018-04-29T10:03:01.972Z,68
2018-04-29T10:08:01.139Z,68
2018-04-29T10:13:01.566Z,68
2018-04-29T10:18:01.246Z,68
2018-04-29T10:23:01.545Z,68
2018-04-29T10:28:01.722Z,68
2018-04-29T10:33:01.126Z,68
2018-04-29T10:38:01.570Z,68
2018-04-29T10:43:01.915Z,68
2018-04-29T10:48:01.336Z,68
2018-04-29T10:53:01.629Z,68
2018-04-29T10:58:01.810Z,68
2018-04-29T11:03:01.270Z,90
2018-04-29T11:08:01.201Z,90
2018-04-29T11:13:01.597Z,68
2018-04-29T11:18:01.112Z,68
2018-04-29T11:23:01.525Z,68
2018-04-29T11:28:01.826Z,68
2018-04-29T11:33:01.280Z,68
2018-04-29T11:38:01.606Z,68
2018-04-29T11:43:01.931Z,45
2018-04-29T11:48:01.337Z,45
2018-04-29T11:53:01.636Z,68
2018-04-29T11:58:01.962Z,68
2018-04-29T12:03:01.478Z,68
2018-04-29T12:08:01.188Z,68
2018-04-29T12:13:01.582Z,45
2018-04-29T12:18:01.976Z,45
2018-04-29T12:23:01.459Z,68
2018-04-29T12:28:01.811Z,68
2018-04-29T12:33:01.316Z,90
2018-04-29T12:38:01.680Z,90
2018-04-29T12:43:02.029Z,45
2018-04-29T12:48:01.408Z,45
2018-04-29T12:53:01.761Z,90
2018-04-29T12:58:01.232Z,90
2018-04-29T13:03:01.599Z,68
2018-04-29T13:08:01.968Z,68
2018-04-29T13:13:01.589Z,68
2018-04-29T13:18:02.089Z,68
2018-04-29T13:23:01.356Z,90
2018-04-29T13:28:01.710Z,90
2018-04-29T13:33:01.221Z,68
2018-04-29T13:38:01.661Z,68
2018-04-29T13:43:01.987Z,68
2018-04-29T13:48:01.371Z,68
2018-04-29T13:53:01.676Z,45
2018-04-29T13:58:01.937Z,45
2018-04-29T14:03:01.657Z,68
2018-04-29T14:08:01.943Z,68
2018-04-29T14:13:02.022Z,68
2018-04-29T14:18:01.419Z,68
2018-04-29T14:23:01.682Z,68
2018-04-29T14:28:01.917Z,68
2018-04-29T14:33:01.431Z,45
2018-04-29T14:38:01.731Z,45
2018-04-29T14:43:02.150Z,68
2018-04-29T14:48:01.653Z,68
2018-04-29T14:53:01.800Z,68
2018-04-29T14:58:01.984Z,68
2018-04-29T15:03:01.568Z,68
2018-04-29T15:08:01.778Z,68
2018-04-29T15:13:01.580Z,68
2018-04-29T15:18:02.341Z,68
2018-04-29T15:23:01.625Z,68
2018-04-29T15:28:01.831Z,68
2018-04-29T15:33:02.360Z,68
2018-04-29T15:38:01.494Z,68
2018-04-29T15:43:01.720Z,45
2018-04-29T15:48:01.940Z,45
2018-04-29T15:53:02.231Z,68
2018-04-29T15:58:01.573Z,68
2018-04-29T16:03:02.206Z,45
2018-04-29T16:08:01.976Z,45
2018-04-29T16:13:01.704Z,45
2018-04-29T16:18:02.103Z,45
2018-04-29T16:23:01.598Z,45
2018-04-29T16:28:01.767Z,45
2018-04-29T16:33:01.504Z,68
2018-04-29T16:38:01.945Z,68
2018-04-29T16:43:01.417Z,45
2018-04-29T16:48:02.237Z,45
2018-04-29T16:53:01.493Z,68
2018-04-29T16:58:01.792Z,68
2018-04-29T17:03:02.179Z,68
2018-04-29T17:08:01.572Z,68
2018-04-29T17:13:01.772Z,68
2018-04-29T17:18:02.291Z,68
2018-04-29T17:23:01.667Z,68
2018-04-29T17:28:01.947Z,68
2018-04-29T17:33:02.276Z,68
2018-04-29T17:38:01.579Z,68
2018-04-29T17:43:01.895Z,68
2018-04-29T17:48:02.148Z,68
2018-04-29T17:53:01.535Z,68
2018-04-29T17:58:01.746Z,68
2018-04-29T18:03:02.222Z,45
2018-04-29T18:08:01.877Z,45
2018-04-29T18:13:01.625Z,68
2018-04-29T18:18:01.916Z,68
2018-04-29T18:23:02.291Z,45
2018-04-29T18:28:01.699Z,45
2018-04-29T18:33:02.208Z,45
2018-04-29T18:38:01.627Z,45
2018-04-29T18:43:02.023Z,45
2018-04-29T18:48:01.556Z,45
2018-04-29T18:53:01.856Z,45
2018-04-29T18:58:02.336Z,45
2018-04-29T19:03:02.285Z,68
2018-04-29T19:08:02.487Z,68
2018-04-29T19:13:17.589Z,0
2018-04-29T19:18:02.058Z,0
2018-04-29T19:23:02.428Z,45
2018-04-29T19:28:01.793Z,45
2018-04-29T19:33:02.365Z,68
2018-04-29T19:38:01.754Z,68
2018-04-29T19:43:02.175Z,45
2018-04-29T19:48:01.600Z,45
2018-04-29T19:53:01.903Z,45
2018-04-29T19:58:02.171Z,45
2018-04-29T20:03:01.661Z,90
2018-04-29T20:08:01.987Z,90
2018-04-29T20:13:02.135Z,0
2018-04-29T20:18:01.569Z,0
2018-04-29T20:23:01.696Z,45
2018-04-29T20:28:02.011Z,45
2018-04-29T20:33:02.499Z,68
2018-04-29T20:38:02.153Z,68
2018-04-29T20:43:01.605Z,22
2018-04-29T20:48:01.788Z,22
2018-04-29T20:53:02.101Z,22
2018-04-29T20:58:02.394Z,22
2018-04-29T21:03:01.863Z,45
2018-04-29T21:08:02.634Z,45
2018-04-29T21:13:02.138Z,45
2018-04-29T21:18:02.611Z,45
2018-04-29T21:23:01.905Z,45
2018-04-29T21:28:02.117Z,45
2018-04-29T21:33:02.446Z,45
2018-04-29T21:38:01.762Z,45
2018-04-29T21:43:02.016Z,45
2018-04-29T21:48:02.226Z,45
2018-04-29T21:53:02.627Z,45
2018-04-29T21:58:01.896Z,45
2018-04-29T22:03:03.065Z,45
2018-04-29T22:08:01.795Z,45
2018-04-29T22:13:02.155Z,68
2018-04-29T22:18:01.928Z,68
2018-04-29T22:23:02.337Z,68
2018-04-29T22:28:02.538Z,68
2018-04-29T22:33:01.844Z,45
2018-04-29T22:38:02.063Z,45
2018-04-29T22:43:02.610Z,45
2018-04-29T22:48:02.028Z,45
2018-04-29T22:53:02.393Z,68
2018-04-29T22:58:01.829Z,68
2018-04-29T23:03:02.265Z,68
2018-04-29T23:08:02.539Z,68
2018-04-29T23:13:02.217Z,68
2018-04-29T23:18:01.960Z,68
2018-04-29T23:23:02.375Z,68
2018-04-29T23:28:02.728Z,68
2018-04-29T23:33:02.126Z,68
2018-04-29T23:38:02.556Z,68
2018-04-29T23:43:02.031Z,68
2018-04-29T23:48:02.320Z,68
2018-04-29T23:53:02.650Z,90
2018-04-29T23:58:01.772Z,90
